Terminal Aerodrome Forecast
Issued by NWS

Home | Current Version | Previous Version | Text Only | Print | Product List | Glossary On
Versions: 1 2 3 4 5 6 7 8 9 10 11 12 13 14
000
FTUS45 KRIW 251700
TAFCPR
TAF
KCPR 251739Z 2518/2618 23026G38KT P6SM VCSH SCT025 BKN060
     FM252100 27020G30KT 5SM -SHSN SCT020 BKN040
     FM260200 01015KT 2SM -SN SCT008 OVC018
     FM261600 23012G20KT P6SM VCSH SCT030 BKN070=

USA.gov is the U.S. government's official web portal to all federal, state and local government web resources and services.